Time;durP1;ratioP1;P1;durP2;ratioP2;P2;SDS_P1;SDS_P2;PMS_P1;PMS_P2;Temp;Humidity;BMP_temperature;BMP_pressure;BME280_temperature;BME280_humidity;BME280_pressure;Samples;Min_cycle;Max_cycle;Signal;HPM_P1;HPM_P2
2023/01/21 00:01:06;;;;;;;32.60;18.93;;;1.70;99.90;;;;;;5076427;28;20222;-80
2023/01/21 00:03:33;;;;;;;38.47;20.40;;;1.60;99.90;;;;;;5072870;28;20216;-79
2023/01/21 00:05:59;;;;;;;35.03;18.83;;;1.50;99.90;;;;;;5073055;28;20226;-79
2023/01/21 00:08:27;;;;;;;34.50;18.27;;;1.50;99.90;;;;;;5075794;28;20320;-80
2023/01/21 00:10:54;;;;;;;53.10;31.47;;;1.40;99.90;;;;;;5074132;28;20282;-79
2023/01/21 00:13:24;;;;;;;44.17;26.57;;;1.40;99.90;;;;;;5073856;28;20230;-79
2023/01/21 00:15:53;;;;;;;40.07;23.43;;;1.20;99.90;;;;;;5084445;28;20322;-79
2023/01/21 00:18:20;;;;;;;38.63;22.17;;;1.20;99.90;;;;;;5078943;28;20256;-79
2023/01/21 00:20:47;;;;;;;36.27;20.90;;;1.10;99.90;;;;;;5077676;28;20215;-79
2023/01/21 00:23:14;;;;;;;34.87;20.93;;;1.00;99.90;;;;;;5082564;28;20217;-80
2023/01/21 00:25:40;;;;;;;40.07;21.90;;;0.90;99.90;;;;;;5081362;28;20323;-80
2023/01/21 00:28:10;;;;;;;38.33;22.13;;;0.90;99.90;;;;;;5076822;28;20222;-79
2023/01/21 00:30:40;;;;;;;38.20;20.40;;;0.90;99.90;;;;;;5076687;28;20234;-81
2023/01/21 00:33:07;;;;;;;35.50;19.03;;;0.80;99.90;;;;;;5074624;28;20281;-81
2023/01/21 00:35:34;;;;;;;36.70;20.80;;;0.80;99.90;;;;;;5080260;28;20286;-81
2023/01/21 00:38:01;;;;;;;38.93;21.77;;;0.80;99.90;;;;;;5076299;28;20694;-81
2023/01/21 00:40:28;;;;;;;35.20;19.97;;;0.70;99.90;;;;;;5078164;28;20219;-81
2023/01/21 00:42:55;;;;;;;35.67;19.23;;;0.70;99.90;;;;;;5076586;28;20334;-82
2023/01/21 00:45:22;;;;;;;41.17;20.20;;;0.70;99.90;;;;;;5075321;28;20317;-78
2023/01/21 00:47:50;;;;;;;37.27;19.20;;;0.70;99.90;;;;;;5073551;28;20287;-78
2023/01/21 00:50:17;;;;;;;38.37;18.73;;;0.70;99.90;;;;;;5078705;28;20305;-78
2023/01/21 00:52:44;;;;;;;37.57;19.80;;;0.70;99.90;;;;;;5072621;28;20301;-78
2023/01/21 00:55:12;;;;;;;34.57;18.93;;;0.70;99.90;;;;;;5071610;28;20924;-78
2023/01/21 00:57:38;;;;;;;36.47;19.57;;;0.70;99.90;;;;;;5073384;28;20766;-78
2023/01/21 01:00:09;;;;;;;34.63;19.20;;;0.80;99.90;;;;;;5067650;28;20315;-78
2023/01/21 01:02:36;;;;;;;37.30;19.23;;;0.80;99.90;;;;;;5073121;28;20214;-78
2023/01/21 01:05:07;;;;;;;36.47;19.83;;;0.80;99.90;;;;;;5073761;28;20236;-78
2023/01/21 01:07:33;;;;;;;33.73;18.93;;;0.90;99.90;;;;;;5067207;28;20348;-78
2023/01/21 01:10:00;;;;;;;33.90;19.37;;;0.90;99.90;;;;;;5074894;28;20303;-77
2023/01/21 01:12:28;;;;;;;35.30;19.27;;;1.00;99.90;;;;;;5069258;28;20230;-78
2023/01/21 01:14:55;;;;;;;32.57;19.10;;;1.00;99.90;;;;;;5071838;28;20215;-78
2023/01/21 01:17:21;;;;;;;35.43;19.53;;;1.10;99.90;;;;;;5078207;28;20229;-78
2023/01/21 01:19:48;;;;;;;35.67;19.90;;;1.10;99.90;;;;;;5078723;28;20223;-77
2023/01/21 01:22:16;;;;;;;34.27;18.70;;;1.10;99.90;;;;;;5072892;28;20318;-78
2023/01/21 01:24:45;;;;;;;32.37;18.70;;;1.10;99.90;;;;;;5068301;28;20226;-78
2023/01/21 01:27:12;;;;;;;36.53;19.53;;;1.10;99.90;;;;;;5074181;28;20531;-77
2023/01/21 01:29:39;;;;;;;32.30;19.27;;;1.10;99.90;;;;;;5064360;28;20322;-78
2023/01/21 01:32:06;;;;;;;28.33;17.23;;;1.10;99.90;;;;;;5070195;28;20218;-77
2023/01/21 01:34:33;;;;;;;30.27;18.03;;;1.10;99.90;;;;;;5075074;28;20234;-78
2023/01/21 01:37:00;;;;;;;36.37;20.40;;;1.10;99.90;;;;;;5069059;28;20231;-77
2023/01/21 01:39:28;;;;;;;33.67;18.43;;;1.00;99.90;;;;;;5072208;28;20233;-78
2023/01/21 01:41:55;;;;;;;34.73;19.17;;;1.00;99.90;;;;;;5089760;28;20226;-78
2023/01/21 01:44:54;;;;;;;32.60;19.20;;;1.00;99.90;;;;;;5074113;28;20225;-78
2023/01/21 01:47:23;;;;;;;32.10;19.37;;;1.00;99.90;;;;;;5078632;28;20792;-78
2023/01/21 01:49:50;;;;;;;33.00;18.83;;;1.00;99.90;;;;;;5076871;28;20405;-79
2023/01/21 01:52:18;;;;;;;32.43;19.03;;;1.00;99.90;;;;;;5058374;28;20216;-78
2023/01/21 01:54:51;;;;;;;31.17;18.67;;;1.00;99.90;;;;;;5071826;28;20218;-77
2023/01/21 01:57:21;;;;;;;31.67;19.37;;;1.10;99.90;;;;;;5071341;28;20224;-77
2023/01/21 01:59:50;;;;;;;36.13;18.93;;;1.10;99.90;;;;;;5068000;28;20223;-77
2023/01/21 02:02:19;;;;;;;30.07;18.43;;;1.10;99.90;;;;;;5070097;28;20333;-77
2023/01/21 02:04:50;;;;;;;32.73;18.33;;;1.20;99.90;;;;;;5072643;28;20304;-77
2023/01/21 02:07:19;;;;;;;33.90;18.50;;;1.20;99.90;;;;;;5067420;28;20278;-78
2023/01/21 02:09:48;;;;;;;34.80;19.73;;;1.20;99.90;;;;;;5074486;28;20233;-78
2023/01/21 02:12:16;;;;;;;31.30;18.50;;;1.30;99.90;;;;;;5071661;28;21295;-78
2023/01/21 02:14:45;;;;;;;29.97;17.73;;;1.30;99.90;;;;;;5066217;28;20229;-77
2023/01/21 02:17:23;;;;;;;32.17;18.43;;;1.40;99.90;;;;;;5072261;28;20228;-77
2023/01/21 02:20:36;;;;;;;33.50;19.23;;;1.40;99.90;;;;;;5079105;28;20218;-78
2023/01/21 02:23:11;;;;;;;31.87;18.50;;;1.40;99.90;;;;;;5068232;28;20253;-78
2023/01/21 02:26:04;;;;;;;29.77;18.23;;;1.50;99.90;;;;;;5071320;28;20904;-78
2023/01/21 02:29:06;;;;;;;31.63;16.90;;;1.50;99.90;;;;;;5071231;28;20832;-78
2023/01/21 02:32:11;;;;;;;32.07;16.97;;;1.50;99.90;;;;;;5081820;28;20292;-78
2023/01/21 02:34:44;;;;;;;28.10;18.40;;;1.50;99.90;;;;;;5065411;28;20317;-78
2023/01/21 02:37:16;;;;;;;30.13;17.67;;;1.60;99.90;;;;;;5076166;28;21163;-78
2023/01/21 02:39:57;;;;;;;27.77;17.07;;;1.60;99.90;;;;;;5076007;28;20260;-79
2023/01/21 02:42:30;;;;;;;28.57;18.00;;;1.50;99.90;;;;;;5074230;28;20240;-78
2023/01/21 02:45:04;;;;;;;32.90;18.53;;;1.50;99.90;;;;;;5075549;28;20305;-79
2023/01/21 02:47:38;;;;;;;35.10;18.87;;;1.50;99.90;;;;;;5070981;28;20246;-79
2023/01/21 02:50:14;;;;;;;35.73;20.70;;;1.50;99.90;;;;;;5086309;28;20295;-79
2023/01/21 02:52:41;;;;;;;35.27;20.27;;;1.50;99.90;;;;;;5082520;28;20240;-79
2023/01/21 02:55:14;;;;;;;30.23;18.70;;;1.50;99.90;;;;;;5078322;28;20221;-79
2023/01/21 02:57:45;;;;;;;32.33;19.03;;;1.50;99.90;;;;;;5084490;28;20289;-79
2023/01/21 03:00:18;;;;;;;32.37;18.00;;;1.50;99.90;;;;;;5083832;28;20230;-79
2023/01/21 03:03:16;;;;;;;32.90;18.83;;;1.50;99.90;;;;;;5075046;28;20223;-78
2023/01/21 03:06:25;;;;;;;32.37;18.97;;;1.50;99.90;;;;;;5071411;28;20229;-78
2023/01/21 03:08:56;;;;;;;32.03;18.83;;;1.50;99.90;;;;;;5035243;28;20236;-76
2023/01/21 03:11:23;;;;;;;37.90;19.43;;;1.50;99.90;;;;;;5069078;28;20290;-76
2023/01/21 03:16:56;;;;;;;36.10;19.43;;;1.50;99.90;;;;;;5072532;28;20914;-77
2023/01/21 03:19:30;;;;;;;32.33;18.63;;;1.50;99.90;;;;;;5076648;28;20224;-77
2023/01/21 03:22:00;;;;;;;34.13;19.50;;;1.50;99.90;;;;;;5072844;28;20257;-78
2023/01/21 03:24:27;;;;;;;33.77;19.10;;;1.50;99.90;;;;;;5079619;28;20217;-78
2023/01/21 03:26:56;;;;;;;33.53;18.70;;;1.60;99.90;;;;;;5073752;28;20711;-77
2023/01/21 03:29:26;;;;;;;34.17;19.27;;;1.60;99.90;;;;;;5083862;28;20223;-78
2023/01/21 03:31:56;;;;;;;37.57;19.40;;;1.60;99.90;;;;;;5073299;28;20234;-77
2023/01/21 03:34:25;;;;;;;30.70;17.97;;;1.60;99.90;;;;;;5070253;28;20882;-78
2023/01/21 03:36:56;;;;;;;32.17;19.47;;;1.60;99.90;;;;;;5074151;28;20340;-77
2023/01/21 03:39:32;;;;;;;31.70;18.67;;;1.60;99.90;;;;;;5078773;28;20234;-78
2023/01/21 03:41:59;;;;;;;33.17;19.87;;;1.60;99.90;;;;;;5094553;28;20214;-77
2023/01/21 03:44:26;;;;;;;33.33;19.87;;;1.60;99.90;;;;;;5072644;28;22010;-78
2023/01/21 03:47:01;;;;;;;32.50;18.87;;;1.60;99.90;;;;;;5072998;28;20695;-78
2023/01/21 03:49:33;;;;;;;32.97;18.27;;;1.70;99.90;;;;;;5083079;28;20221;-77
2023/01/21 03:52:01;;;;;;;33.73;19.23;;;1.70;99.90;;;;;;5076845;28;20223;-78
2023/01/21 03:54:29;;;;;;;34.50;19.10;;;1.70;99.90;;;;;;5078584;28;20230;-77
2023/01/21 03:56:56;;;;;;;32.53;19.23;;;1.70;99.90;;;;;;5074285;28;20659;-76
2023/01/21 03:59:22;;;;;;;33.17;19.43;;;1.70;99.90;;;;;;5079246;28;20224;-78
2023/01/21 04:01:49;;;;;;;33.27;19.60;;;1.70;99.90;;;;;;5073996;28;20527;-77
2023/01/21 04:04:16;;;;;;;35.30;20.37;;;1.80;99.90;;;;;;5069237;28;21072;-77
2023/01/21 04:06:43;;;;;;;33.67;19.10;;;1.80;99.90;;;;;;5071333;28;20232;-78
2023/01/21 04:09:11;;;;;;;33.07;19.47;;;1.80;99.90;;;;;;5075360;28;20226;-77
2023/01/21 04:11:39;;;;;;;43.07;23.23;;;1.90;99.90;;;;;;5073883;28;20219;-77
2023/01/21 04:14:06;;;;;;;38.13;20.57;;;1.80;99.90;;;;;;5065131;28;20701;-77
2023/01/21 04:16:32;;;;;;;59.83;30.50;;;1.80;99.90;;;;;;5077039;28;20225;-78
2023/01/21 04:18:59;;;;;;;57.27;32.23;;;1.90;99.90;;;;;;5076855;28;20222;-78
2023/01/21 04:21:26;;;;;;;34.67;21.70;;;1.80;99.90;;;;;;5073818;28;20225;-78
2023/01/21 04:23:53;;;;;;;38.40;22.10;;;1.90;99.90;;;;;;5069048;28;20226;-78
2023/01/21 04:26:20;;;;;;;37.80;21.20;;;1.80;99.90;;;;;;5075320;28;20231;-78
2023/01/21 04:28:49;;;;;;;36.93;21.50;;;1.80;99.90;;;;;;5073147;28;20226;-77
2023/01/21 04:31:16;;;;;;;40.90;21.40;;;1.80;99.90;;;;;;5067358;28;20218;-77
2023/01/21 04:33:43;;;;;;;43.20;23.93;;;1.80;99.90;;;;;;5075839;28;20241;-78
2023/01/21 04:36:10;;;;;;;45.67;27.93;;;1.80;99.90;;;;;;5077789;28;20226;-78
2023/01/21 04:38:37;;;;;;;41.00;22.80;;;1.80;99.90;;;;;;5071668;28;20223;-78
2023/01/21 04:41:08;;;;;;;45.33;25.47;;;1.80;99.90;;;;;;5080784;28;20243;-79
2023/01/21 04:43:34;;;;;;;55.43;32.40;;;1.80;99.90;;;;;;5073338;28;20222;-78
2023/01/21 04:46:02;;;;;;;39.40;23.30;;;1.80;99.90;;;;;;5072391;28;20292;-79
2023/01/21 04:48:30;;;;;;;41.33;23.87;;;1.70;99.90;;;;;;5088084;28;20713;-77
2023/01/21 04:50:56;;;;;;;46.17;28.63;;;1.80;99.90;;;;;;5080510;28;20295;-79
2023/01/21 04:53:23;;;;;;;39.80;22.07;;;1.80;99.90;;;;;;5070064;28;20229;-79
2023/01/21 04:55:51;;;;;;;49.40;27.40;;;1.80;99.90;;;;;;5082821;28;20300;-76
2023/01/21 04:58:18;;;;;;;44.23;23.67;;;1.80;99.90;;;;;;5071056;28;20333;-77
2023/01/21 05:00:45;;;;;;;47.30;23.80;;;1.70;99.90;;;;;;5076591;28;20229;-77
2023/01/21 05:03:13;;;;;;;47.20;23.90;;;1.70;99.90;;;;;;5072289;28;20438;-79
2023/01/21 05:05:40;;;;;;;42.77;23.40;;;1.70;99.90;;;;;;5073730;28;20234;-79
2023/01/21 05:08:09;;;;;;;43.17;22.50;;;1.70;99.90;;;;;;5076060;28;20230;-79
2023/01/21 05:10:38;;;;;;;46.83;23.20;;;1.70;99.90;;;;;;5078816;28;20326;-80
2023/01/21 05:13:05;;;;;;;44.43;22.83;;;1.70;99.90;;;;;;5063212;28;20666;-79
2023/01/21 05:15:31;;;;;;;47.93;25.77;;;1.60;99.90;;;;;;5069080;28;20234;-78
2023/01/21 05:17:59;;;;;;;47.07;24.37;;;1.60;99.90;;;;;;5079526;28;20218;-78
2023/01/21 05:20:27;;;;;;;49.53;24.30;;;1.60;99.90;;;;;;5075431;28;20617;-80
2023/01/21 05:22:56;;;;;;;44.00;24.47;;;1.60;99.90;;;;;;5071468;28;20873;-79
2023/01/21 05:25:23;;;;;;;44.83;23.27;;;1.60;99.90;;;;;;5069320;28;20770;-79
2023/01/21 05:27:54;;;;;;;40.43;21.73;;;1.60;99.90;;;;;;5077567;28;20230;-79
2023/01/21 05:30:21;;;;;;;43.17;22.63;;;1.50;99.90;;;;;;5083077;28;20230;-79
2023/01/21 05:32:51;;;;;;;39.50;22.20;;;1.60;99.90;;;;;;5082480;28;20401;-79
2023/01/21 05:35:19;;;;;;;45.93;23.53;;;1.60;99.90;;;;;;5077475;28;20595;-79
2023/01/21 05:37:50;;;;;;;41.50;23.23;;;1.60;99.90;;;;;;5079375;28;20223;-79
2023/01/21 05:40:17;;;;;;;41.57;22.53;;;1.60;99.90;;;;;;5073240;28;20302;-79
2023/01/21 05:42:44;;;;;;;41.00;23.33;;;1.60;99.90;;;;;;5095095;28;20344;-79
2023/01/21 05:45:12;;;;;;;42.93;22.43;;;1.60;99.90;;;;;;5064933;28;20908;-79
2023/01/21 05:47:39;;;;;;;42.97;22.80;;;1.50;99.90;;;;;;5063291;28;20318;-80
2023/01/21 05:50:09;;;;;;;40.17;22.47;;;1.50;99.90;;;;;;5062863;28;20223;-78
2023/01/21 05:52:36;;;;;;;43.30;22.13;;;1.50;99.90;;;;;;5065948;28;20340;-77
2023/01/21 05:55:05;;;;;;;47.70;24.43;;;1.50;99.90;;;;;;5064951;28;20227;-80
2023/01/21 05:57:32;;;;;;;44.30;23.53;;;1.50;99.90;;;;;;5067674;28;20236;-76
2023/01/21 05:59:59;;;;;;;45.43;23.50;;;1.50;99.90;;;;;;5073598;28;20219;-76
2023/01/21 06:02:26;;;;;;;48.83;25.03;;;1.50;99.90;;;;;;5075817;28;20328;-75
2023/01/21 06:04:53;;;;;;;45.03;22.50;;;1.50;99.90;;;;;;5068247;28;21226;-76
2023/01/21 06:07:20;;;;;;;47.93;23.30;;;1.50;99.90;;;;;;5072850;28;20311;-76
2023/01/21 06:09:47;;;;;;;43.87;22.23;;;1.50;99.90;;;;;;5072236;28;20250;-76
2023/01/21 06:12:15;;;;;;;43.37;22.70;;;1.50;99.90;;;;;;5076637;28;20217;-76
2023/01/21 06:14:42;;;;;;;45.17;22.53;;;1.50;99.90;;;;;;5067991;28;20606;-75
2023/01/21 06:17:08;;;;;;;43.30;21.47;;;1.50;99.90;;;;;;5065074;28;20222;-76
2023/01/21 06:19:35;;;;;;;40.37;21.20;;;1.40;99.90;;;;;;5075347;28;20230;-75
2023/01/21 06:22:02;;;;;;;43.83;21.50;;;1.40;99.90;;;;;;5079258;28;20222;-75
2023/01/21 06:24:28;;;;;;;39.23;21.37;;;1.40;99.90;;;;;;5075906;28;20237;-75
2023/01/21 06:26:56;;;;;;;41.03;22.17;;;1.40;99.90;;;;;;5076917;28;20229;-75
2023/01/21 06:29:24;;;;;;;42.00;22.17;;;1.40;99.90;;;;;;5081120;28;20299;-75
2023/01/21 06:31:51;;;;;;;42.70;21.43;;;1.40;99.90;;;;;;5074713;28;20264;-76
2023/01/21 06:34:18;;;;;;;44.17;22.53;;;1.40;99.90;;;;;;5076296;28;20335;-76
2023/01/21 06:36:45;;;;;;;43.53;21.50;;;1.40;99.90;;;;;;5074865;28;20228;-76
2023/01/21 06:39:12;;;;;;;39.63;21.77;;;1.40;99.90;;;;;;5082965;28;20223;-76
2023/01/21 06:41:38;;;;;;;37.83;21.37;;;1.40;99.90;;;;;;5089432;28;20620;-76
2023/01/21 06:47:02;;;;;;;42.80;21.40;;;1.40;99.90;;;;;;4977387;28;20918;-81
2023/01/21 06:49:29;;;;;;;43.53;22.63;;;1.40;99.90;;;;;;4968655;28;20221;-85
2023/01/21 06:51:56;;;;;;;47.27;23.47;;;1.50;99.90;;;;;;4964957;28;20237;-83
2023/01/21 06:54:23;;;;;;;41.90;21.57;;;1.40;99.90;;;;;;4964493;28;20976;-83
2023/01/21 06:56:49;;;;;;;39.20;21.73;;;1.40;99.90;;;;;;4965369;28;20234;-84
2023/01/21 06:59:16;;;;;;;42.80;21.83;;;1.40;99.90;;;;;;4966701;28;20765;-83
2023/01/21 07:01:43;;;;;;;45.03;22.00;;;1.50;99.90;;;;;;4964709;28;20218;-83
2023/01/21 07:04:11;;;;;;;39.80;21.10;;;1.40;99.90;;;;;;4965055;28;20229;-84
2023/01/21 07:06:38;;;;;;;44.27;21.77;;;1.40;99.90;;;;;;4964250;28;20241;-83
2023/01/21 07:09:05;;;;;;;42.23;21.90;;;1.40;99.90;;;;;;4960047;28;20250;-83
2023/01/21 07:11:32;;;;;;;40.57;20.57;;;1.30;99.90;;;;;;4965526;28;20257;-83
2023/01/21 07:13:59;;;;;;;38.17;20.67;;;1.30;99.90;;;;;;4962287;28;20320;-83
2023/01/21 07:16:26;;;;;;;38.23;21.33;;;1.30;99.90;;;;;;4968522;28;20718;-83
2023/01/21 07:18:53;;;;;;;44.57;21.10;;;1.30;99.90;;;;;;4961054;28;20237;-82
2023/01/21 07:21:21;;;;;;;45.37;22.80;;;1.30;99.90;;;;;;4961088;28;20230;-83
2023/01/21 07:23:47;;;;;;;40.30;21.70;;;1.30;99.90;;;;;;4966440;28;20220;-83
2023/01/21 07:26:14;;;;;;;39.97;20.87;;;1.30;99.90;;;;;;4964216;28;20223;-80
2023/01/21 07:28:41;;;;;;;48.00;25.83;;;1.30;99.90;;;;;;4963387;28;20222;-82
2023/01/21 07:31:08;;;;;;;50.50;27.43;;;1.30;99.90;;;;;;4952947;28;20222;-82
2023/01/21 07:33:35;;;;;;;41.50;22.90;;;1.30;99.90;;;;;;4963988;28;20874;-81
2023/01/21 07:36:01;;;;;;;41.83;22.40;;;1.30;99.90;;;;;;4962773;28;20273;-82
2023/01/21 07:38:29;;;;;;;45.13;22.53;;;1.30;99.90;;;;;;4962087;28;20227;-82
2023/01/21 07:40:56;;;;;;;42.43;23.47;;;1.30;99.90;;;;;;4963157;28;20243;-83
2023/01/21 07:43:23;;;;;;;66.93;33.30;;;1.30;99.90;;;;;;4960422;28;20233;-81
2023/01/21 07:45:50;;;;;;;68.47;38.70;;;1.30;99.90;;;;;;4957532;28;20228;-82
2023/01/21 07:48:17;;;;;;;71.90;34.90;;;1.30;99.90;;;;;;4960293;28;20314;-80
2023/01/21 07:50:44;;;;;;;68.97;28.70;;;1.30;99.90;;;;;;4956906;28;20226;-80
2023/01/21 07:53:11;;;;;;;92.33;32.17;;;1.30;99.90;;;;;;4960273;28;20246;-82
2023/01/21 07:55:39;;;;;;;58.20;24.80;;;1.30;99.90;;;;;;4961907;28;20241;-81
2023/01/21 07:58:06;;;;;;;77.80;32.13;;;1.30;99.90;;;;;;4965012;28;20703;-82
2023/01/21 08:00:33;;;;;;;42.40;24.03;;;1.30;99.90;;;;;;4963961;28;20226;-82
2023/01/21 08:03:00;;;;;;;45.47;27.63;;;1.30;99.90;;;;;;4963019;28;20215;-84
2023/01/21 08:05:26;;;;;;;44.00;22.50;;;1.30;99.90;;;;;;4959031;28;20317;-85
2023/01/21 08:07:57;;;;;;;44.17;22.87;;;1.30;99.90;;;;;;4955605;28;20228;-81
2023/01/21 08:10:24;;;;;;;42.80;21.87;;;1.30;99.90;;;;;;4955286;28;20226;-76
2023/01/21 08:12:52;;;;;;;55.93;24.30;;;1.30;99.90;;;;;;4958697;28;20234;-77
2023/01/21 08:15:19;;;;;;;47.23;22.67;;;1.30;99.90;;;;;;4964446;28;20308;-77
2023/01/21 08:17:46;;;;;;;41.13;21.97;;;1.20;99.90;;;;;;4961711;28;20717;-77
2023/01/21 08:20:14;;;;;;;66.60;35.67;;;1.20;99.90;;;;;;4967123;28;20246;-77
2023/01/21 08:22:40;;;;;;;50.17;26.07;;;1.30;99.90;;;;;;4966523;28;20237;-77
2023/01/21 08:25:08;;;;;;;47.40;25.60;;;1.30;99.90;;;;;;4963100;28;20257;-77
2023/01/21 08:27:35;;;;;;;61.60;33.17;;;1.30;99.90;;;;;;4992778;28;20287;-77
2023/01/21 08:30:03;;;;;;;47.53;23.70;;;1.30;99.90;;;;;;4966030;28;20227;-77
2023/01/21 08:32:31;;;;;;;50.67;27.80;;;1.30;99.90;;;;;;4977609;28;20238;-77
2023/01/21 08:34:57;;;;;;;47.40;24.37;;;1.40;99.90;;;;;;4967611;28;20232;-77
2023/01/21 08:37:24;;;;;;;46.77;24.97;;;1.40;99.90;;;;;;4961502;28;20239;-77
2023/01/21 08:39:51;;;;;;;59.00;30.87;;;1.40;99.90;;;;;;4966529;28;20227;-77
2023/01/21 08:42:17;;;;;;;58.07;30.73;;;1.50;99.90;;;;;;4967261;28;20228;-77
2023/01/21 08:44:45;;;;;;;43.63;23.67;;;1.50;99.90;;;;;;4975758;28;20232;-77
2023/01/21 08:47:13;;;;;;;44.90;23.87;;;1.60;99.90;;;;;;4988811;28;20224;-77
2023/01/21 08:49:39;;;;;;;45.47;24.77;;;1.60;99.90;;;;;;5025530;28;20221;-77
2023/01/21 08:52:06;;;;;;;48.00;24.60;;;1.70;99.90;;;;;;5025322;28;20224;-77
2023/01/21 08:54:33;;;;;;;48.33;25.20;;;1.70;99.90;;;;;;5026351;28;20232;-77
2023/01/21 08:56:59;;;;;;;43.73;24.33;;;1.80;99.90;;;;;;4996547;28;20250;-77
2023/01/21 08:59:27;;;;;;;46.33;24.40;;;1.80;99.90;;;;;;5025585;28;20299;-76
2023/01/21 09:01:54;;;;;;;49.77;26.70;;;1.80;99.90;;;;;;5014139;28;20241;-77
2023/01/21 09:04:22;;;;;;;50.40;27.07;;;1.90;99.90;;;;;;5005773;28;20254;-77
2023/01/21 09:06:49;;;;;;;46.27;24.70;;;1.90;99.90;;;;;;5005468;28;20316;-77
2023/01/21 09:09:15;;;;;;;45.17;24.30;;;2.00;99.90;;;;;;4987763;28;20249;-76
2023/01/21 09:11:42;;;;;;;45.30;25.13;;;1.90;99.90;;;;;;4987635;28;20232;-77
2023/01/21 09:14:09;;;;;;;43.23;23.60;;;2.00;99.90;;;;;;5005506;28;20223;-76
2023/01/21 09:16:36;;;;;;;47.67;24.13;;;1.90;99.90;;;;;;5005262;28;20256;-77
2023/01/21 09:19:03;;;;;;;45.07;23.77;;;2.00;99.90;;;;;;5005915;28;20217;-76
2023/01/21 09:21:33;;;;;;;71.47;42.80;;;1.90;99.90;;;;;;4995405;28;20233;-76
2023/01/21 09:24:00;;;;;;;51.67;25.60;;;2.00;99.90;;;;;;5005975;28;20226;-77
2023/01/21 09:26:27;;;;;;;91.03;53.50;;;1.90;99.90;;;;;;4985445;28;20257;-77
2023/01/21 09:28:55;;;;;;;50.50;27.60;;;1.90;99.90;;;;;;5005163;28;20737;-77
2023/01/21 09:31:23;;;;;;;47.57;24.93;;;1.90;99.90;;;;;;4972291;28;20230;-77
2023/01/21 09:33:51;;;;;;;65.03;43.83;;;1.90;99.90;;;;;;5000775;28;20284;-77
2023/01/21 09:36:21;;;;;;;59.90;42.17;;;1.90;99.90;;;;;;4967762;28;20233;-77
2023/01/21 09:38:50;;;;;;;44.73;23.33;;;2.00;99.90;;;;;;5001658;28;20297;-77
2023/01/21 09:41:25;;;;;;;49.17;27.70;;;2.00;99.90;;;;;;4967908;28;20232;-77
2023/01/21 09:44:00;;;;;;;40.93;23.90;;;2.10;99.90;;;;;;4984337;28;20298;-77
2023/01/21 09:46:38;;;;;;;42.57;23.63;;;2.10;99.90;;;;;;5000328;28;20944;-77
2023/01/21 09:49:11;;;;;;;45.47;26.67;;;2.20;99.90;;;;;;4972272;28;20225;-77
2023/01/21 09:51:50;;;;;;;42.27;23.87;;;2.20;99.90;;;;;;4987722;28;20226;-76
2023/01/21 09:54:24;;;;;;;45.43;24.93;;;2.30;99.90;;;;;;4981858;28;20283;-77
2023/01/21 09:57:15;;;;;;;45.60;26.83;;;2.30;99.90;;;;;;5001958;28;20233;-76
2023/01/21 09:59:51;;;;;;;45.40;24.83;;;2.30;99.90;;;;;;4980523;28;20912;-77
2023/01/21 10:02:26;;;;;;;61.63;33.73;;;2.40;99.90;;;;;;4973228;28;20225;-77
2023/01/21 10:05:05;;;;;;;37.87;21.97;;;2.40;99.90;;;;;;4968836;28;20240;-77
2023/01/21 10:07:37;;;;;;;38.80;22.03;;;2.40;99.90;;;;;;4986690;28;20236;-77
2023/01/21 10:10:14;;;;;;;36.90;21.07;;;2.40;99.90;;;;;;4987195;28;20256;-77
2023/01/21 10:13:13;;;;;;;40.10;22.00;;;2.40;99.90;;;;;;5004135;28;20228;-77
2023/01/21 10:15:49;;;;;;;38.20;21.90;;;2.40;99.90;;;;;;4986840;28;20244;-77
2023/01/21 10:18:19;;;;;;;41.77;23.73;;;2.50;99.90;;;;;;4982361;28;20223;-77
2023/01/21 10:20:50;;;;;;;44.33;27.47;;;2.50;99.90;;;;;;5003786;28;20287;-78
2023/01/21 10:23:24;;;;;;;40.83;23.33;;;2.60;99.90;;;;;;4986143;28;20229;-77
2023/01/21 10:25:52;;;;;;;34.70;19.97;;;2.60;99.90;;;;;;5004793;28;20710;-77
2023/01/21 10:28:22;;;;;;;34.40;20.03;;;2.60;99.90;;;;;;5004059;28;20234;-77
2023/01/21 10:30:51;;;;;;;53.07;33.93;;;2.70;99.90;;;;;;5004920;28;20647;-77
2023/01/21 10:33:22;;;;;;;37.03;23.23;;;2.70;99.90;;;;;;5003743;28;20253;-77
2023/01/21 10:36:02;;;;;;;34.87;20.23;;;2.80;99.90;;;;;;5004309;28;20279;-77
2023/01/21 10:38:36;;;;;;;32.40;19.30;;;2.80;99.90;;;;;;5003756;28;20232;-77
2023/01/21 10:41:28;;;;;;;32.10;19.17;;;2.80;99.90;;;;;;5003730;28;20230;-77
2023/01/21 10:44:01;;;;;;;32.13;20.20;;;2.90;99.90;;;;;;5007267;28;20220;-77
2023/01/21 10:46:33;;;;;;;56.03;32.30;;;2.90;99.90;;;;;;5014603;28;20234;-77
2023/01/21 10:49:11;;;;;;;42.57;25.80;;;3.00;99.90;;;;;;5004734;28;20236;-77
2023/01/21 10:51:44;;;;;;;28.57;17.30;;;3.00;99.90;;;;;;5004116;28;20729;-77
2023/01/21 10:54:18;;;;;;;25.93;16.10;;;3.10;99.90;;;;;;5009308;28;20869;-77
2023/01/21 10:56:54;;;;;;;27.43;16.63;;;3.20;99.90;;;;;;5023869;28;20703;-76
2023/01/21 10:59:26;;;;;;;50.03;29.83;;;3.30;99.90;;;;;;5024219;28;20291;-77
2023/01/21 11:02:03;;;;;;;154.97;72.40;;;3.30;99.90;;;;;;5016399;28;20722;-77
2023/01/21 11:04:30;;;;;;;37.83;22.57;;;3.40;99.90;;;;;;5024525;28;20253;-77
2023/01/21 11:07:00;;;;;;;28.30;17.57;;;3.50;99.90;;;;;;5024469;28;20225;-77
2023/01/21 11:09:30;;;;;;;28.83;19.83;;;3.50;99.90;;;;;;5008400;28;20638;-77
2023/01/21 11:11:59;;;;;;;24.30;15.63;;;3.60;99.90;;;;;;5003132;28;20325;-77
2023/01/21 11:14:26;;;;;;;27.83;16.13;;;3.60;99.90;;;;;;5007009;28;20226;-77
2023/01/21 11:16:53;;;;;;;24.60;15.17;;;3.60;99.90;;;;;;5025998;28;20243;-77
2023/01/21 11:19:23;;;;;;;25.97;15.20;;;3.60;99.90;;;;;;5026669;28;20363;-77
2023/01/21 11:22:03;;;;;;;23.93;14.77;;;3.70;99.90;;;;;;5027800;28;20248;-77
2023/01/21 11:24:31;;;;;;;21.33;13.73;;;3.70;99.90;;;;;;4986608;28;20314;-77
2023/01/21 11:27:00;;;;;;;24.27;14.30;;;3.70;99.90;;;;;;4991928;28;20225;-77
2023/01/21 11:29:39;;;;;;;23.27;14.50;;;3.70;99.90;;;;;;5006713;28;20304;-77
2023/01/21 11:32:16;;;;;;;26.27;16.10;;;3.70;99.90;;;;;;5006213;28;20230;-77
2023/01/21 11:34:45;;;;;;;22.07;14.27;;;3.70;99.90;;;;;;5008319;28;20234;-77
2023/01/21 11:37:21;;;;;;;23.90;14.37;;;3.70;99.90;;;;;;5005868;28;20221;-77
2023/01/21 11:39:53;;;;;;;22.33;14.47;;;3.70;99.90;;;;;;5023262;28;20225;-77
2023/01/21 11:42:22;;;;;;;22.23;15.17;;;3.70;99.90;;;;;;5007418;28;20752;-77
2023/01/21 11:44:53;;;;;;;24.53;14.23;;;3.80;99.90;;;;;;5007834;28;20331;-77
2023/01/21 11:47:29;;;;;;;21.67;13.67;;;3.70;99.90;;;;;;5007785;28;20645;-77
2023/01/21 11:50:02;;;;;;;20.70;13.37;;;3.80;99.90;;;;;;5006598;28;20245;-77
2023/01/21 11:52:29;;;;;;;19.03;12.60;;;3.80;99.90;;;;;;5006069;28;20229;-77
2023/01/21 11:54:56;;;;;;;21.10;12.40;;;3.80;99.90;;;;;;5009388;28;20300;-77
2023/01/21 11:57:28;;;;;;;18.07;11.47;;;3.80;99.90;;;;;;5009075;28;20230;-77
2023/01/21 12:00:17;;;;;;;19.07;11.90;;;3.80;99.90;;;;;;5025684;28;20226;-77
2023/01/21 12:02:47;;;;;;;20.77;12.77;;;3.80;99.90;;;;;;5010923;28;20229;-77
2023/01/21 12:05:21;;;;;;;20.33;13.53;;;3.80;99.90;;;;;;5007162;28;20236;-78
2023/01/21 12:07:51;;;;;;;22.17;13.60;;;3.80;99.90;;;;;;4999104;28;20217;-77
2023/01/21 12:10:25;;;;;;;18.93;12.47;;;3.70;99.90;;;;;;5020326;28;20222;-77
2023/01/21 12:13:18;;;;;;;18.73;12.30;;;3.70;99.90;;;;;;5025115;28;20225;-77
2023/01/21 12:16:02;;;;;;;24.77;16.87;;;3.70;99.90;;;;;;5007009;28;20880;-76
2023/01/21 12:18:41;;;;;;;24.10;18.43;;;3.70;99.90;;;;;;5001221;28;21028;-76
2023/01/21 12:21:29;;;;;;;21.30;13.07;;;3.70;99.90;;;;;;4994919;28;20222;-76
2023/01/21 12:24:11;;;;;;;22.10;14.83;;;3.70;99.90;;;;;;4996629;28;20228;-76
2023/01/21 12:26:40;;;;;;;18.93;13.00;;;3.70;99.90;;;;;;5004587;28;20644;-76
2023/01/21 12:29:23;;;;;;;24.20;14.50;;;3.70;99.90;;;;;;4993262;28;20225;-76
2023/01/21 12:31:54;;;;;;;18.43;12.30;;;3.70;99.90;;;;;;5005846;28;20223;-76
2023/01/21 12:34:30;;;;;;;19.60;12.70;;;3.80;99.90;;;;;;4988260;28;20251;-76
2023/01/21 12:37:01;;;;;;;18.73;11.83;;;3.90;99.90;;;;;;5005968;28;20236;-76
2023/01/21 12:39:31;;;;;;;20.57;12.67;;;3.90;99.90;;;;;;5001859;28;20225;-77
2023/01/21 12:42:06;;;;;;;20.27;13.13;;;3.90;99.90;;;;;;4988255;28;20730;-76
2023/01/21 12:44:39;;;;;;;17.73;12.37;;;4.00;99.90;;;;;;5005569;28;20240;-76
2023/01/21 12:47:13;;;;;;;20.17;13.17;;;4.00;99.90;;;;;;5047245;22;20520;-82
2023/01/21 12:49:54;;;;;;;20.47;12.57;;;3.90;99.90;;;;;;5064934;28;20223;-83
2023/01/21 12:52:26;;;;;;;19.20;12.97;;;3.90;99.90;;;;;;5061978;28;20229;-81
2023/01/21 12:54:59;;;;;;;19.23;13.43;;;3.80;99.90;;;;;;5070928;28;20223;-83
2023/01/21 12:57:31;;;;;;;22.53;13.30;;;3.70;99.90;;;;;;5050171;28;20309;-82